MSC Poh Lin — H8FC — position and weather

sailwx.info

Track history (hours):
 
Tides and Currents Weather Stations Pressure Air Temp Water Temp Dewpoint Dewpoint Depression Visibility Wind Speed Wind Dir Waves Ship Positions

MSC Poh Lin

Last reported at 2015-May-23 15:31 UTC. Time now 2015-May-23 16:25 UTC.
Position N 44°06' E 009°51'.

Length 294 m; draft 8.9 m.

Type: Ship (hazmat cat A). MMSI: 357405000.

Date/timePositionNaut miles runAvg speedWind from/ knotsBaromVisibWave heightAir tempDewpointWater temp
2015-May-23 15:31N 44°06' E 009°51'0 0.0
2015-May-23 14:31N 44°06' E 009°51'0 0.0
2015-May-23 13:31N 44°06' E 009°51'0 0.0
2015-May-23 12:31N 44°06' E 009°51'0 0.0
2015-May-23 11:28N 44°06' E 009°51'0 0.0
2015-May-23 10:31N 44°06' E 009°51'1 1.3
2015-May-23 09:33N 44°05' E 009°51'8 7.9
2015-May-23 08:33N 43°58' E 009°56'9 9.1
2015-May-23 07:33N 43°50' E 009°52'1212.4
2015-May-23 06:34N 43°38' E 009°46'1212.1
2015-May-23 05:34N 43°26' E 009°41'10 9.9
2015-May-23 04:34N 43°18' E 009°48'1010.0
2015-May-23 03:34N 43°10' E 009°56'10 9.8
2015-May-23 02:33N 43°00' E 010°01'221 5.5
2015-May-21 10:04N 40°19' E 013°23'14718.7
2015-May-21 02:14N 38°37' E 015°40'1217.5
2015-May-21 01:33N 38°28' E 015°51'3 3.0
2015-May-21 00:29N 38°28' E 015°55'0 0.0
2015-May-20 23:29N 38°28' E 015°55'0 0.0
2015-May-20 22:23N 38°28' E 015°55'0 0.0
2015-May-20 21:26N 38°28' E 015°55'0 0.0
2015-May-20 20:26N 38°28' E 015°55'0 0.0
2015-May-20 19:32N 38°28' E 015°55'0 0.0
2015-May-20 18:32N 38°28' E 015°55'0 0.0
2015-May-20 17:29N 38°28' E 015°55'0 0.0
2015-May-20 16:32N 38°28' E 015°55'0 0.0
2015-May-20 15:32N 38°28' E 015°55'  
2015-May-14 10:30N 39°59' E 014°23'4422.4
2015-May-14 08:33N 40°34' E 013°49'2222.1
2015-May-14 07:33N 40°51' E 013°31'2222.3
2015-May-14 06:33N 41°03' E 013°06'2222.1
2015-May-14 05:33N 41°16' E 012°42'2221.9
2015-May-14 04:33N 41°30' E 012°19'  
Track history (hours):
 
Tides and Currents Weather Stations Pressure Air Temp Water Temp Dewpoint Dewpoint Depression Visibility Wind Speed Wind Dir Waves Ship Positions

MSC Poh Lin

Last reported at 2015-May-23 15:31 UTC. Time now 2015-May-23 16:25 UTC.
Position N 44°06' E 009°51'.

Length 294 m; draft 8.9 m.

Type: Ship (hazmat cat A). MMSI: 357405000.

Date/timePositionNaut miles runAvg speedWind from/ knotsBaromVisibWave heightAir tempDewpointWater temp
2015-May-23 15:31N 44°06' E 009°51'0 0.0
2015-May-23 14:31N 44°06' E 009°51'0 0.0
2015-May-23 13:31N 44°06' E 009°51'0 0.0
2015-May-23 12:31N 44°06' E 009°51'0 0.0
2015-May-23 11:28N 44°06' E 009°51'0 0.0
2015-May-23 10:31N 44°06' E 009°51'1 1.3
2015-May-23 09:33N 44°05' E 009°51'8 7.9
2015-May-23 08:33N 43°58' E 009°56'9 9.1
2015-May-23 07:33N 43°50' E 009°52'1212.4
2015-May-23 06:34N 43°38' E 009°46'1212.1
2015-May-23 05:34N 43°26' E 009°41'10 9.9
2015-May-23 04:34N 43°18' E 009°48'1010.0
2015-May-23 03:34N 43°10' E 009°56'10 9.8
2015-May-23 02:33N 43°00' E 010°01'221 5.5
2015-May-21 10:04N 40°19' E 013°23'14718.7
2015-May-21 02:14N 38°37' E 015°40'1217.5
2015-May-21 01:33N 38°28' E 015°51'3 3.0
2015-May-21 00:29N 38°28' E 015°55'0 0.0
2015-May-20 23:29N 38°28' E 015°55'0 0.0
2015-May-20 22:23N 38°28' E 015°55'0 0.0
2015-May-20 21:26N 38°28' E 015°55'0 0.0
2015-May-20 20:26N 38°28' E 015°55'0 0.0
2015-May-20 19:32N 38°28' E 015°55'0 0.0
2015-May-20 18:32N 38°28' E 015°55'0 0.0
2015-May-20 17:29N 38°28' E 015°55'0 0.0
2015-May-20 16:32N 38°28' E 015°55'0 0.0
2015-May-20 15:32N 38°28' E 015°55'  
2015-May-14 10:30N 39°59' E 014°23'4422.4
2015-May-14 08:33N 40°34' E 013°49'2222.1
2015-May-14 07:33N 40°51' E 013°31'2222.3
2015-May-14 06:33N 41°03' E 013°06'2222.1
2015-May-14 05:33N 41°16' E 012°42'2221.9
2015-May-14 04:33N 41°30' E 012°19'  

Dump ship's entire track history